sensor_id;sensor_type;location;lat;lon;timestamp;temperature;humidity
10249;DHT22;5169;50.560;9.714;2022-11-15T03:18:26;10.20;99.90
10249;DHT22;5169;50.560;9.714;2022-11-15T03:20:55;10.20;99.90
10249;DHT22;5169;50.560;9.714;2022-11-15T03:23:26;10.10;99.90
10249;DHT22;5169;50.560;9.714;2022-11-15T03:25:57;10.10;99.90
10249;DHT22;5169;50.560;9.714;2022-11-15T03:28:31;10.10;99.90
10249;DHT22;5169;50.560;9.714;2022-11-15T03:30:59;10.20;99.90
10249;DHT22;5169;50.560;9.714;2022-11-15T03:33:27;10.10;99.90
10249;DHT22;5169;50.560;9.714;2022-11-15T03:35:56;10.10;99.90
10249;DHT22;5169;50.560;9.714;2022-11-15T03:38:29;10.10;99.90
10249;DHT22;5169;50.560;9.714;2022-11-15T03:41:26;10.10;99.90
10249;DHT22;5169;50.560;9.714;2022-11-15T03:44:04;10.10;99.90
10249;DHT22;5169;50.560;9.714;2022-11-15T03:46:49;10.20;99.90
10249;DHT22;5169;50.560;9.714;2022-11-15T03:49:25;10.10;99.90
10249;DHT22;5169;50.560;9.714;2022-11-15T03:51:53;10.10;99.90
10249;DHT22;5169;50.560;9.714;2022-11-15T03:54:21;10.30;99.90
10249;DHT22;5169;50.560;9.714;2022-11-15T03:56:49;10.40;99.90
10249;DHT22;5169;50.560;9.714;2022-11-15T03:59:15;10.40;99.90
10249;DHT22;5169;50.560;9.714;2022-11-15T04:01:40;10.30;99.90
10249;DHT22;5169;50.560;9.714;2022-11-15T04:04:06;10.30;99.90
10249;DHT22;5169;50.560;9.714;2022-11-15T04:06:34;10.30;99.90
10249;DHT22;5169;50.560;9.714;2022-11-15T04:09:02;10.20;99.90
10249;DHT22;5169;50.560;9.714;2022-11-15T04:11:28;10.20;99.90
10249;DHT22;5169;50.560;9.714;2022-11-15T04:13:53;10.10;99.90
10249;DHT22;5169;50.560;9.714;2022-11-15T04:16:21;10.00;99.90
10249;DHT22;5169;50.560;9.714;2022-11-15T04:18:47;9.90;99.90
10249;DHT22;5169;50.560;9.714;2022-11-15T04:21:32;9.80;99.90
10249;DHT22;5169;50.560;9.714;2022-11-15T04:24:16;9.90;99.90
10249;DHT22;5169;50.560;9.714;2022-11-15T04:26:42;9.80;99.90
10249;DHT22;5169;50.560;9.714;2022-11-15T04:29:10;9.90;99.90
10249;DHT22;5169;50.560;9.714;2022-11-15T04:31:56;9.90;99.90
10249;DHT22;5169;50.560;9.714;2022-11-15T04:34:22;9.90;99.90
10249;DHT22;5169;50.560;9.714;2022-11-15T04:36:50;9.90;99.90
10249;DHT22;5169;50.560;9.714;2022-11-15T04:39:34;9.90;99.90
10249;DHT22;5169;50.560;9.714;2022-11-15T04:42:00;9.90;99.90
10249;DHT22;5169;50.560;9.714;2022-11-15T04:44:26;9.80;99.90
10249;DHT22;5169;50.560;9.714;2022-11-15T04:46:54;9.80;99.90
10249;DHT22;5169;50.560;9.714;2022-11-15T04:49:19;9.80;99.90
10249;DHT22;5169;50.560;9.714;2022-11-15T04:51:45;9.70;99.90
10249;DHT22;5169;50.560;9.714;2022-11-15T04:54:11;9.80;99.90
10249;DHT22;5169;50.560;9.714;2022-11-15T04:56:36;9.80;99.90
10249;DHT22;5169;50.560;9.714;2022-11-15T04:59:02;9.80;99.90
10249;DHT22;5169;50.560;9.714;2022-11-15T05:01:28;9.80;99.90
10249;DHT22;5169;50.560;9.714;2022-11-15T05:03:53;9.70;99.90
10249;DHT22;5169;50.560;9.714;2022-11-15T05:06:37;9.60;99.90
10249;DHT22;5169;50.560;9.714;2022-11-15T05:09:03;9.50;99.90
10249;DHT22;5169;50.560;9.714;2022-11-15T05:11:31;9.50;99.90
10249;DHT22;5169;50.560;9.714;2022-11-15T05:13:57;9.40;99.90
10249;DHT22;5169;50.560;9.714;2022-11-15T05:16:23;9.30;99.90
10249;DHT22;5169;50.560;9.714;2022-11-15T05:18:53;9.30;99.90
10249;DHT22;5169;50.560;9.714;2022-11-15T05:21:19;9.30;99.90
10249;DHT22;5169;50.560;9.714;2022-11-15T05:23:45;9.30;99.90
10249;DHT22;5169;50.560;9.714;2022-11-15T05:26:11;9.30;99.90
10249;DHT22;5169;50.560;9.714;2022-11-15T05:28:37;9.30;99.90
10249;DHT22;5169;50.560;9.714;2022-11-15T05:31:09;9.30;99.90
10249;DHT22;5169;50.560;9.714;2022-11-15T05:33:42;9.30;99.90
10249;DHT22;5169;50.560;9.714;2022-11-15T05:38:57;9.20;99.90
10249;DHT22;5169;50.560;9.714;2022-11-15T05:41:34;9.30;99.90
10249;DHT22;5169;50.560;9.714;2022-11-15T05:44:02;9.30;99.90
10249;DHT22;5169;50.560;9.714;2022-11-15T05:46:29;9.30;99.90
10249;DHT22;5169;50.560;9.714;2022-11-15T05:48:57;9.30;99.90
10249;DHT22;5169;50.560;9.714;2022-11-15T05:51:26;9.20;99.90
10249;DHT22;5169;50.560;9.714;2022-11-15T05:54:00;9.20;99.90
10249;DHT22;5169;50.560;9.714;2022-11-15T05:56:26;9.20;99.90
10249;DHT22;5169;50.560;9.714;2022-11-15T05:58:59;9.20;99.90
10249;DHT22;5169;50.560;9.714;2022-11-15T06:01:25;9.20;99.90
10249;DHT22;5169;50.560;9.714;2022-11-15T06:03:51;9.20;99.90
10249;DHT22;5169;50.560;9.714;2022-11-15T06:06:17;9.20;99.90
10249;DHT22;5169;50.560;9.714;2022-11-15T06:08:43;9.20;99.90
10249;DHT22;5169;50.560;9.714;2022-11-15T06:11:11;9.10;99.90
10249;DHT22;5169;50.560;9.714;2022-11-15T06:13:41;9.10;99.90
10249;DHT22;5169;50.560;9.714;2022-11-15T06:16:06;9.10;99.90
10249;DHT22;5169;50.560;9.714;2022-11-15T06:18:36;9.20;99.90
10249;DHT22;5169;50.560;9.714;2022-11-15T06:21:01;9.20;99.90
10249;DHT22;5169;50.560;9.714;2022-11-15T06:23:28;9.20;99.90
10249;DHT22;5169;50.560;9.714;2022-11-15T06:25:57;9.30;99.90
10249;DHT22;5169;50.560;9.714;2022-11-15T06:28:22;9.30;99.90
10249;DHT22;5169;50.560;9.714;2022-11-15T06:30:48;9.40;99.90
10249;DHT22;5169;50.560;9.714;2022-11-15T06:33:13;9.50;99.90
10249;DHT22;5169;50.560;9.714;2022-11-15T06:35:39;9.40;99.90
10249;DHT22;5169;50.560;9.714;2022-11-15T06:38:07;9.50;99.90
10249;DHT22;5169;50.560;9.714;2022-11-15T06:40:37;9.60;99.90
10249;DHT22;5169;50.560;9.714;2022-11-15T06:43:04;9.60;99.90
10249;DHT22;5169;50.560;9.714;2022-11-15T06:45:32;9.60;99.90
10249;DHT22;5169;50.560;9.714;2022-11-15T06:48:01;9.60;99.90
10249;DHT22;5169;50.560;9.714;2022-11-15T06:50:26;9.60;99.90
10249;DHT22;5169;50.560;9.714;2022-11-15T06:52:52;9.70;99.90
10249;DHT22;5169;50.560;9.714;2022-11-15T06:55:18;9.80;99.90
10249;DHT22;5169;50.560;9.714;2022-11-15T06:57:51;9.80;99.90
10249;DHT22;5169;50.560;9.714;2022-11-15T07:00:19;9.90;99.90
10249;DHT22;5169;50.560;9.714;2022-11-15T07:02:45;9.90;99.90
10249;DHT22;5169;50.560;9.714;2022-11-15T07:05:11;9.90;99.90
10249;DHT22;5169;50.560;9.714;2022-11-15T07:07:36;10.00;99.90
10249;DHT22;5169;50.560;9.714;2022-11-15T07:10:02;10.00;99.90
10249;DHT22;5169;50.560;9.714;2022-11-15T07:12:28;10.00;99.90
10249;DHT22;5169;50.560;9.714;2022-11-15T07:14:56;10.00;99.90
10249;DHT22;5169;50.560;9.714;2022-11-15T07:17:24;10.00;99.90
10249;DHT22;5169;50.560;9.714;2022-11-15T07:19:52;9.90;99.90
10249;DHT22;5169;50.560;9.714;2022-11-15T07:22:18;9.90;99.90
10249;DHT22;5169;50.560;9.714;2022-11-15T07:24:43;10.00;99.90
10249;DHT22;5169;50.560;9.714;2022-11-15T07:27:09;10.00;99.90
10249;DHT22;5169;50.560;9.714;2022-11-15T07:29:35;10.00;99.90
10249;DHT22;5169;50.560;9.714;2022-11-15T07:32:00;10.00;99.90
10249;DHT22;5169;50.560;9.714;2022-11-15T07:34:26;10.00;99.90
10249;DHT22;5169;50.560;9.714;2022-11-15T07:36:52;10.00;99.90
10249;DHT22;5169;50.560;9.714;2022-11-15T07:39:17;10.20;99.90
10249;DHT22;5169;50.560;9.714;2022-11-15T07:41:43;10.30;99.90
10249;DHT22;5169;50.560;9.714;2022-11-15T07:44:11;10.30;99.90
10249;DHT22;5169;50.560;9.714;2022-11-15T07:46:36;10.40;99.90
10249;DHT22;5169;50.560;9.714;2022-11-15T07:49:04;10.50;99.90
10249;DHT22;5169;50.560;9.714;2022-11-15T07:51:32;10.60;99.90
10249;DHT22;5169;50.560;9.714;2022-11-15T07:54:00;10.70;99.90
10249;DHT22;5169;50.560;9.714;2022-11-15T07:56:28;10.70;99.90
10249;DHT22;5169;50.560;9.714;2022-11-15T07:58:54;10.70;99.90
10249;DHT22;5169;50.560;9.714;2022-11-15T08:01:19;10.60;99.90
10249;DHT22;5169;50.560;9.714;2022-11-15T08:03:47;10.50;99.90
10249;DHT22;5169;50.560;9.714;2022-11-15T08:06:13;10.40;99.90
10249;DHT22;5169;50.560;9.714;2022-11-15T08:08:39;10.50;99.90
10249;DHT22;5169;50.560;9.714;2022-11-15T08:11:04;10.60;99.90
10249;DHT22;5169;50.560;9.714;2022-11-15T08:13:32;10.60;99.90
10249;DHT22;5169;50.560;9.714;2022-11-15T08:16:02;10.60;99.90
10249;DHT22;5169;50.560;9.714;2022-11-15T08:18:30;10.70;99.90
10249;DHT22;5169;50.560;9.714;2022-11-15T08:21:00;11.00;99.90
10249;DHT22;5169;50.560;9.714;2022-11-15T08:23:29;11.10;99.90
10249;DHT22;5169;50.560;9.714;2022-11-15T08:26:04;11.10;99.90
10249;DHT22;5169;50.560;9.714;2022-11-15T08:28:33;11.30;99.90
10249;DHT22;5169;50.560;9.714;2022-11-15T08:31:03;11.60;99.90
10249;DHT22;5169;50.560;9.714;2022-11-15T08:33:30;12.20;99.90
10249;DHT22;5169;50.560;9.714;2022-11-15T08:35:59;12.80;99.90
10249;DHT22;5169;50.560;9.714;2022-11-15T08:38:26;13.40;99.90
10249;DHT22;5169;50.560;9.714;2022-11-15T08:41:01;13.90;99.90
10249;DHT22;5169;50.560;9.714;2022-11-15T08:43:28;14.50;99.90
10249;DHT22;5169;50.560;9.714;2022-11-15T08:45:56;14.80;99.90
10249;DHT22;5169;50.560;9.714;2022-11-15T08:48:29;15.00;99.90
10249;DHT22;5169;50.560;9.714;2022-11-15T08:50:56;15.30;99.90
10249;DHT22;5169;50.560;9.714;2022-11-15T08:53:22;15.80;99.90
10249;DHT22;5169;50.560;9.714;2022-11-15T08:55:47;16.40;99.90
10249;DHT22;5169;50.560;9.714;2022-11-15T08:58:13;17.00;99.90
10249;DHT22;5169;50.560;9.714;2022-11-15T09:00:42;17.40;99.90
10249;DHT22;5169;50.560;9.714;2022-11-15T09:03:07;17.70;99.50
10249;DHT22;5169;50.560;9.714;2022-11-15T09:05:41;18.10;98.50
10249;DHT22;5169;50.560;9.714;2022-11-15T09:08:08;18.60;97.80
10249;DHT22;5169;50.560;9.714;2022-11-15T09:10:41;19.30;96.40
10249;DHT22;5169;50.560;9.714;2022-11-15T09:13:10;19.60;95.80
10249;DHT22;5169;50.560;9.714;2022-11-15T09:15:39;19.80;95.20
10249;DHT22;5169;50.560;9.714;2022-11-15T09:18:07;19.90;94.00
10249;DHT22;5169;50.560;9.714;2022-11-15T09:20:33;20.20;94.00
10249;DHT22;5169;50.560;9.714;2022-11-15T09:23:05;20.60;92.90
10249;DHT22;5169;50.560;9.714;2022-11-15T09:25:31;20.90;92.90
10249;DHT22;5169;50.560;9.714;2022-11-15T09:28:06;21.70;91.40
10249;DHT22;5169;50.560;9.714;2022-11-15T09:30:43;22.20;90.30
10249;DHT22;5169;50.560;9.714;2022-11-15T09:33:10;22.50;90.00
10249;DHT22;5169;50.560;9.714;2022-11-15T09:35:39;23.10;87.60
10249;DHT22;5169;50.560;9.714;2022-11-15T09:38:06;23.90;84.60
10249;DHT22;5169;50.560;9.714;2022-11-15T09:40:32;24.40;80.80
10249;DHT22;5169;50.560;9.714;2022-11-15T09:51:43;25.00;75.80
10249;DHT22;5169;50.560;9.714;2022-11-15T09:54:31;25.30;74.90
10249;DHT22;5169;50.560;9.714;2022-11-15T10:00:19;24.50;73.30
10249;DHT22;5169;50.560;9.714;2022-11-15T10:03:08;24.70;75.20
10249;DHT22;5169;50.560;9.714;2022-11-15T10:11:06;25.30;71.90
10249;DHT22;5169;50.560;9.714;2022-11-15T10:13:41;26.00;71.00
10249;DHT22;5169;50.560;9.714;2022-11-15T10:24:59;27.20;65.50
10249;DHT22;5169;50.560;9.714;2022-11-15T10:27:29;27.00;65.60
10249;DHT22;5169;50.560;9.714;2022-11-15T10:29:57;26.60;66.00
10249;DHT22;5169;50.560;9.714;2022-11-15T10:32:32;27.10;65.40
10249;DHT22;5169;50.560;9.714;2022-11-15T10:35:17;27.20;65.00
10249;DHT22;5169;50.560;9.714;2022-11-15T10:37:43;27.00;63.90
10249;DHT22;5169;50.560;9.714;2022-11-15T10:40:29;28.30;62.80
10249;DHT22;5169;50.560;9.714;2022-11-15T10:45:39;28.80;59.40
10249;DHT22;5169;50.560;9.714;2022-11-15T10:48:20;28.40;60.00
10249;DHT22;5169;50.560;9.714;2022-11-15T10:50:47;28.60;59.20
10249;DHT22;5169;50.560;9.714;2022-11-15T10:53:23;28.00;58.70
10249;DHT22;5169;50.560;9.714;2022-11-15T10:56:06;27.40;61.20
10249;DHT22;5169;50.560;9.714;2022-11-15T10:58:35;27.60;61.00
10249;DHT22;5169;50.560;9.714;2022-11-15T11:01:15;27.50;61.00
10249;DHT22;5169;50.560;9.714;2022-11-15T11:03:45;26.20;62.60
10249;DHT22;5169;50.560;9.714;2022-11-15T11:06:46;24.40;65.10
10249;DHT22;5169;50.560;9.714;2022-11-15T11:09:39;22.30;70.80
10249;DHT22;5169;50.560;9.714;2022-11-15T11:12:14;20.80;75.50
10249;DHT22;5169;50.560;9.714;2022-11-15T11:14:54;19.70;79.70
10249;DHT22;5169;50.560;9.714;2022-11-15T11:20:06;21.60;75.40
10249;DHT22;5169;50.560;9.714;2022-11-15T11:31:00;23.50;68.20
10249;DHT22;5169;50.560;9.714;2022-11-15T11:36:35;24.00;67.20
10249;DHT22;5169;50.560;9.714;2022-11-15T11:45:15;22.00;71.00
10249;DHT22;5169;50.560;9.714;2022-11-15T11:48:16;20.80;74.30
10249;DHT22;5169;50.560;9.714;2022-11-15T11:50:50;19.70;78.10
10249;DHT22;5169;50.560;9.714;2022-11-15T11:53:45;19.10;80.60
10249;DHT22;5169;50.560;9.714;2022-11-15T11:56:31;18.60;81.50
10249;DHT22;5169;50.560;9.714;2022-11-15T12:11:17;18.60;85.00
10249;DHT22;5169;50.560;9.714;2022-11-15T12:13:45;19.10;84.40
10249;DHT22;5169;50.560;9.714;2022-11-15T12:16:31;19.10;84.80
10249;DHT22;5169;50.560;9.714;2022-11-15T12:19:07;18.80;83.80
10249;DHT22;5169;50.560;9.714;2022-11-15T12:22:10;18.70;85.90
10249;DHT22;5169;50.560;9.714;2022-11-15T12:29:48;18.90;87.20
10249;DHT22;5169;50.560;9.714;2022-11-15T12:32:33;19.20;86.00
10249;DHT22;5169;50.560;9.714;2022-11-15T12:35:05;18.60;86.70
10249;DHT22;5169;50.560;9.714;2022-11-15T12:42:40;17.40;91.20
10249;DHT22;5169;50.560;9.714;2022-11-15T12:45:29;17.40;91.30
10249;DHT22;5169;50.560;9.714;2022-11-15T12:53:44;16.90;92.80
10249;DHT22;5169;50.560;9.714;2022-11-15T13:12:10;16.10;96.00
10249;DHT22;5169;50.560;9.714;2022-11-15T13:17:33;16.00;96.40
10249;DHT22;5169;50.560;9.714;2022-11-15T13:36:47;15.50;98.50
10249;DHT22;5169;50.560;9.714;2022-11-15T13:39:30;15.30;98.80
10249;DHT22;5169;50.560;9.714;2022-11-15T13:42:00;15.40;99.40
10249;DHT22;5169;50.560;9.714;2022-11-15T13:44:35;15.60;99.20
10249;DHT22;5169;50.560;9.714;2022-11-15T13:49:44;15.90;98.50
10249;DHT22;5169;50.560;9.714;2022-11-15T13:52:13;15.80;98.70
10249;DHT22;5169;50.560;9.714;2022-11-15T13:57:45;15.70;99.00
10249;DHT22;5169;50.560;9.714;2022-11-15T14:02:57;15.60;99.80
10249;DHT22;5169;50.560;9.714;2022-11-15T14:05:33;15.70;99.90
10249;DHT22;5169;50.560;9.714;2022-11-15T14:10:44;15.50;99.90
10249;DHT22;5169;50.560;9.714;2022-11-15T14:13:31;15.40;99.90
10249;DHT22;5169;50.560;9.714;2022-11-15T14:16:20;15.10;99.90
10249;DHT22;5169;50.560;9.714;2022-11-15T14:18:50;14.70;99.90
10249;DHT22;5169;50.560;9.714;2022-11-15T14:21:22;14.60;99.90
10249;DHT22;5169;50.560;9.714;2022-11-15T14:24:22;14.50;99.90
10249;DHT22;5169;50.560;9.714;2022-11-15T14:29:47;14.30;99.90
10249;DHT22;5169;50.560;9.714;2022-11-15T14:32:41;14.10;99.90
10249;DHT22;5169;50.560;9.714;2022-11-15T14:35:21;14.00;99.90
10249;DHT22;5169;50.560;9.714;2022-11-15T14:37:53;13.80;99.90
10249;DHT22;5169;50.560;9.714;2022-11-15T14:40:22;13.80;99.90
10249;DHT22;5169;50.560;9.714;2022-11-15T14:42:49;13.80;99.90
10249;DHT22;5169;50.560;9.714;2022-11-15T14:45:20;13.70;99.90
10249;DHT22;5169;50.560;9.714;2022-11-15T14:47:47;13.70;99.90
10249;DHT22;5169;50.560;9.714;2022-11-15T14:50:23;13.70;99.90
10249;DHT22;5169;50.560;9.714;2022-11-15T14:52:49;13.70;99.90
10249;DHT22;5169;50.560;9.714;2022-11-15T14:55:34;13.70;99.90
10249;DHT22;5169;50.560;9.714;2022-11-15T14:58:08;13.60;99.90
10249;DHT22;5169;50.560;9.714;2022-11-15T15:00:36;13.50;99.90
10249;DHT22;5169;50.560;9.714;2022-11-15T15:03:12;13.40;99.90
10249;DHT22;5169;50.560;9.714;2022-11-15T15:05:43;13.50;99.90
10249;DHT22;5169;50.560;9.714;2022-11-15T15:08:10;13.50;99.90
10249;DHT22;5169;50.560;9.714;2022-11-15T15:10:40;13.40;99.90
10249;DHT22;5169;50.560;9.714;2022-11-15T15:16:30;13.40;99.90
10249;DHT22;5169;50.560;9.714;2022-11-15T15:18:57;13.50;99.90
10249;DHT22;5169;50.560;9.714;2022-11-15T15:21:33;13.50;99.90
10249;DHT22;5169;50.560;9.714;2022-11-15T15:23:59;13.60;99.90
10249;DHT22;5169;50.560;9.714;2022-11-15T15:26:31;13.40;99.90
10249;DHT22;5169;50.560;9.714;2022-11-15T15:29:01;13.40;99.90
10249;DHT22;5169;50.560;9.714;2022-11-15T15:31:34;13.30;99.90
10249;DHT22;5169;50.560;9.714;2022-11-15T15:34:02;13.30;99.90
10249;DHT22;5169;50.560;9.714;2022-11-15T15:36:31;13.20;99.90
10249;DHT22;5169;50.560;9.714;2022-11-15T15:38:59;13.20;99.90
10249;DHT22;5169;50.560;9.714;2022-11-15T15:41:34;13.30;99.90
10249;DHT22;5169;50.560;9.714;2022-11-15T15:44:00;13.30;99.90
10249;DHT22;5169;50.560;9.714;2022-11-15T15:46:34;13.30;99.90
10249;DHT22;5169;50.560;9.714;2022-11-15T15:49:00;13.20;99.90
10249;DHT22;5169;50.560;9.714;2022-11-15T15:51:34;13.10;99.90
10249;DHT22;5169;50.560;9.714;2022-11-15T15:54:00;13.30;99.90
10249;DHT22;5169;50.560;9.714;2022-11-15T15:56:25;13.30;99.90
10249;DHT22;5169;50.560;9.714;2022-11-15T15:58:55;13.20;99.90
10249;DHT22;5169;50.560;9.714;2022-11-15T16:01:20;13.40;99.90
10249;DHT22;5169;50.560;9.714;2022-11-15T16:03:47;13.30;99.90
10249;DHT22;5169;50.560;9.714;2022-11-15T16:06:35;13.30;99.90
10249;DHT22;5169;50.560;9.714;2022-11-15T16:09:02;13.10;99.90
10249;DHT22;5169;50.560;9.714;2022-11-15T16:11:31;13.00;99.90
10249;DHT22;5169;50.560;9.714;2022-11-15T16:13:59;12.80;99.90
10249;DHT22;5169;50.560;9.714;2022-11-15T16:16:25;12.90;99.90
10249;DHT22;5169;50.560;9.714;2022-11-15T16:18:58;12.90;99.90
10249;DHT22;5169;50.560;9.714;2022-11-15T16:21:26;12.80;99.90
10249;DHT22;5169;50.560;9.714;2022-11-15T16:23:55;12.70;99.90
10249;DHT22;5169;50.560;9.714;2022-11-15T16:26:31;12.60;99.90
10249;DHT22;5169;50.560;9.714;2022-11-15T16:28:58;12.70;99.90
10249;DHT22;5169;50.560;9.714;2022-11-15T16:31:23;12.60;99.90
10249;DHT22;5169;50.560;9.714;2022-11-15T16:33:49;12.50;99.90
10249;DHT22;5169;50.560;9.714;2022-11-15T16:36:23;12.60;99.90
10249;DHT22;5169;50.560;9.714;2022-11-15T16:38:58;12.60;99.90
10249;DHT22;5169;50.560;9.714;2022-11-15T16:41:26;12.50;99.90
10249;DHT22;5169;50.560;9.714;2022-11-15T16:44:03;12.50;99.90
10249;DHT22;5169;50.560;9.714;2022-11-15T16:46:36;12.40;99.90
10249;DHT22;5169;50.560;9.714;2022-11-15T16:49:03;12.40;99.90
10249;DHT22;5169;50.560;9.714;2022-11-15T16:51:32;12.40;99.90
10249;DHT22;5169;50.560;9.714;2022-11-15T16:53:57;12.50;99.90
10249;DHT22;5169;50.560;9.714;2022-11-15T16:56:26;12.50;99.90
10249;DHT22;5169;50.560;9.714;2022-11-15T16:59:02;12.50;99.90
10249;DHT22;5169;50.560;9.714;2022-11-15T17:01:36;12.70;99.90
10249;DHT22;5169;50.560;9.714;2022-11-15T17:04:16;12.70;99.90
10249;DHT22;5169;50.560;9.714;2022-11-15T17:06:49;12.60;99.90
10249;DHT22;5169;50.560;9.714;2022-11-15T17:09:21;12.50;99.90
10249;DHT22;5169;50.560;9.714;2022-11-15T17:11:51;12.50;99.90
10249;DHT22;5169;50.560;9.714;2022-11-15T17:14:25;12.50;99.90
10249;DHT22;5169;50.560;9.714;2022-11-15T17:16:58;12.40;99.90
10249;DHT22;5169;50.560;9.714;2022-11-15T17:19:34;12.40;99.90
10249;DHT22;5169;50.560;9.714;2022-11-15T17:22:00;12.40;99.90
10249;DHT22;5169;50.560;9.714;2022-11-15T17:24:28;12.30;99.90
10249;DHT22;5169;50.560;9.714;2022-11-15T17:27:00;12.30;99.90
10249;DHT22;5169;50.560;9.714;2022-11-15T17:29:25;12.40;99.90
10249;DHT22;5169;50.560;9.714;2022-11-15T17:31:57;12.40;99.90
10249;DHT22;5169;50.560;9.714;2022-11-15T17:34:22;12.40;99.90
10249;DHT22;5169;50.560;9.714;2022-11-15T17:36:48;12.50;99.90
10249;DHT22;5169;50.560;9.714;2022-11-15T17:39:14;12.40;99.90
10249;DHT22;5169;50.560;9.714;2022-11-15T17:41:47;12.40;99.90
10249;DHT22;5169;50.560;9.714;2022-11-15T17:44:15;12.40;99.90
10249;DHT22;5169;50.560;9.714;2022-11-15T17:46:40;12.40;99.90
10249;DHT22;5169;50.560;9.714;2022-11-15T17:49:09;12.50;99.90
10249;DHT22;5169;50.560;9.714;2022-11-15T17:51:35;12.40;99.90
10249;DHT22;5169;50.560;9.714;2022-11-15T17:54:03;12.40;99.90
10249;DHT22;5169;50.560;9.714;2022-11-15T17:56:37;12.30;99.90
10249;DHT22;5169;50.560;9.714;2022-11-15T17:59:03;12.20;99.90
10249;DHT22;5169;50.560;9.714;2022-11-15T18:01:35;12.10;99.90
10249;DHT22;5169;50.560;9.714;2022-11-15T18:04:06;12.10;99.90
10249;DHT22;5169;50.560;9.714;2022-11-15T18:06:39;12.20;99.90
10249;DHT22;5169;50.560;9.714;2022-11-15T18:09:05;12.20;99.90
10249;DHT22;5169;50.560;9.714;2022-11-15T18:11:40;12.10;99.90
10249;DHT22;5169;50.560;9.714;2022-11-15T18:14:11;12.20;99.90
10249;DHT22;5169;50.560;9.714;2022-11-15T18:16:42;12.20;99.90
10249;DHT22;5169;50.560;9.714;2022-11-15T18:19:11;12.20;99.90
10249;DHT22;5169;50.560;9.714;2022-11-15T18:21:46;12.30;99.90
10249;DHT22;5169;50.560;9.714;2022-11-15T18:24:36;12.20;99.90
10249;DHT22;5169;50.560;9.714;2022-11-15T18:27:11;12.20;99.90
10249;DHT22;5169;50.560;9.714;2022-11-15T18:29:39;12.30;99.90
10249;DHT22;5169;50.560;9.714;2022-11-15T18:32:05;12.30;99.90
10249;DHT22;5169;50.560;9.714;2022-11-15T18:34:38;12.20;99.90
10249;DHT22;5169;50.560;9.714;2022-11-15T18:37:04;12.30;99.90
10249;DHT22;5169;50.560;9.714;2022-11-15T18:39:35;12.30;99.90
10249;DHT22;5169;50.560;9.714;2022-11-15T18:42:01;12.20;99.90
10249;DHT22;5169;50.560;9.714;2022-11-15T18:44:30;12.20;99.90
10249;DHT22;5169;50.560;9.714;2022-11-15T18:46:58;12.20;99.90
10249;DHT22;5169;50.560;9.714;2022-11-15T18:49:27;12.10;99.90
10249;DHT22;5169;50.560;9.714;2022-11-15T18:52:01;12.20;99.90
10249;DHT22;5169;50.560;9.714;2022-11-15T18:54:26;12.20;99.90
10249;DHT22;5169;50.560;9.714;2022-11-15T18:56:52;12.20;99.90
10249;DHT22;5169;50.560;9.714;2022-11-15T18:59:18;12.20;99.90
10249;DHT22;5169;50.560;9.714;2022-11-15T19:01:46;12.10;99.90
10249;DHT22;5169;50.560;9.714;2022-11-15T19:04:24;12.00;99.90
10249;DHT22;5169;50.560;9.714;2022-11-15T19:06:50;12.00;99.90
10249;DHT22;5169;50.560;9.714;2022-11-15T19:09:18;11.90;99.90
10249;DHT22;5169;50.560;9.714;2022-11-15T19:11:48;11.90;99.90
10249;DHT22;5169;50.560;9.714;2022-11-15T19:14:17;11.90;99.90
10249;DHT22;5169;50.560;9.714;2022-11-15T19:16:47;11.80;99.90
10249;DHT22;5169;50.560;9.714;2022-11-15T19:19:23;11.90;99.90
10249;DHT22;5169;50.560;9.714;2022-11-15T19:21:52;11.80;99.90
10249;DHT22;5169;50.560;9.714;2022-11-15T19:24:18;11.80;99.90
10249;DHT22;5169;50.560;9.714;2022-11-15T19:26:47;11.90;99.90
10249;DHT22;5169;50.560;9.714;2022-11-15T19:29:15;11.90;99.90
10249;DHT22;5169;50.560;9.714;2022-11-15T19:31:42;11.90;99.90
10249;DHT22;5169;50.560;9.714;2022-11-15T19:34:11;11.90;99.90
10249;DHT22;5169;50.560;9.714;2022-11-15T19:36:42;11.90;99.90
10249;DHT22;5169;50.560;9.714;2022-11-15T19:39:15;11.90;99.90
10249;DHT22;5169;50.560;9.714;2022-11-15T19:41:46;11.80;99.90
10249;DHT22;5169;50.560;9.714;2022-11-15T19:44:12;11.80;99.90
10249;DHT22;5169;50.560;9.714;2022-11-15T19:46:38;11.90;99.90
10249;DHT22;5169;50.560;9.714;2022-11-15T19:49:05;11.80;99.90
10249;DHT22;5169;50.560;9.714;2022-11-15T19:51:38;11.80;99.90
10249;DHT22;5169;50.560;9.714;2022-11-15T19:54:06;11.90;99.90
10249;DHT22;5169;50.560;9.714;2022-11-15T19:56:48;11.90;99.90
10249;DHT22;5169;50.560;9.714;2022-11-15T19:59:16;11.90;99.90
10249;DHT22;5169;50.560;9.714;2022-11-15T20:01:41;11.90;99.90
10249;DHT22;5169;50.560;9.714;2022-11-15T20:04:13;11.90;99.90
10249;DHT22;5169;50.560;9.714;2022-11-15T20:06:48;11.80;99.90
10249;DHT22;5169;50.560;9.714;2022-11-15T20:09:16;11.80;99.90
10249;DHT22;5169;50.560;9.714;2022-11-15T20:11:47;11.90;99.90
10249;DHT22;5169;50.560;9.714;2022-11-15T20:14:15;12.00;99.90
10249;DHT22;5169;50.560;9.714;2022-11-15T20:16:41;12.10;99.90
10249;DHT22;5169;50.560;9.714;2022-11-15T20:19:13;12.10;99.90
10249;DHT22;5169;50.560;9.714;2022-11-15T20:21:42;12.00;99.90
10249;DHT22;5169;50.560;9.714;2022-11-15T20:24:11;12.10;99.90
10249;DHT22;5169;50.560;9.714;2022-11-15T20:26:37;12.00;99.90
10249;DHT22;5169;50.560;9.714;2022-11-15T20:29:04;12.00;99.90
10249;DHT22;5169;50.560;9.714;2022-11-15T20:31:30;11.90;99.90
10249;DHT22;5169;50.560;9.714;2022-11-15T20:33:59;11.90;99.90
10249;DHT22;5169;50.560;9.714;2022-11-15T20:36:25;11.90;99.90
10249;DHT22;5169;50.560;9.714;2022-11-15T20:38:51;11.90;99.90
10249;DHT22;5169;50.560;9.714;2022-11-15T20:41:26;11.90;99.90
10249;DHT22;5169;50.560;9.714;2022-11-15T20:43:52;12.10;99.90
10249;DHT22;5169;50.560;9.714;2022-11-15T20:46:18;12.10;99.90
10249;DHT22;5169;50.560;9.714;2022-11-15T20:48:47;12.00;99.90
10249;DHT22;5169;50.560;9.714;2022-11-15T20:51:15;11.90;99.90
10249;DHT22;5169;50.560;9.714;2022-11-15T20:53:50;12.00;99.90
10249;DHT22;5169;50.560;9.714;2022-11-15T20:56:18;12.00;99.90
10249;DHT22;5169;50.560;9.714;2022-11-15T20:58:50;12.10;99.90
10249;DHT22;5169;50.560;9.714;2022-11-15T21:01:18;12.10;99.90
10249;DHT22;5169;50.560;9.714;2022-11-15T21:03:55;12.00;99.90
10249;DHT22;5169;50.560;9.714;2022-11-15T21:06:27;12.00;99.90
10249;DHT22;5169;50.560;9.714;2022-11-15T21:08:53;11.90;99.90
10249;DHT22;5169;50.560;9.714;2022-11-15T21:11:38;11.90;99.90
10249;DHT22;5169;50.560;9.714;2022-11-15T21:14:25;12.10;99.90
10249;DHT22;5169;50.560;9.714;2022-11-15T21:16:51;11.90;99.90
10249;DHT22;5169;50.560;9.714;2022-11-15T21:19:17;11.80;99.90
10249;DHT22;5169;50.560;9.714;2022-11-15T21:21:52;11.90;99.90
10249;DHT22;5169;50.560;9.714;2022-11-15T21:24:17;12.00;99.90
10249;DHT22;5169;50.560;9.714;2022-11-15T21:26:50;12.00;99.90
10249;DHT22;5169;50.560;9.714;2022-11-15T21:29:16;12.00;99.90
10249;DHT22;5169;50.560;9.714;2022-11-15T21:31:43;12.00;99.90
10249;DHT22;5169;50.560;9.714;2022-11-15T21:34:16;12.00;99.90
10249;DHT22;5169;50.560;9.714;2022-11-15T21:36:42;12.10;99.90
10249;DHT22;5169;50.560;9.714;2022-11-15T21:39:08;12.10;99.90
10249;DHT22;5169;50.560;9.714;2022-11-15T21:41:39;12.10;99.90